sensor_id;sensor_type;location;lat;lon;timestamp;pressure;altitude;pressure_sealevel;temperature;humidity
49216;BME280;45943;53.148;8.204;2022-08-21T00:01:03;101635.84;;;29.09;44.22
49216;BME280;45943;53.148;8.204;2022-08-21T00:03:32;101636.22;;;29.37;43.59
49216;BME280;45943;53.148;8.204;2022-08-21T00:05:58;101635.97;;;29.39;43.40
49216;BME280;45943;53.148;8.204;2022-08-21T00:08:24;101636.88;;;29.58;43.11
49216;BME280;45943;53.148;8.204;2022-08-21T00:10:50;101623.03;;;29.58;42.97
49216;BME280;45943;53.148;8.204;2022-08-21T00:13:17;101619.91;;;29.54;42.65
49216;BME280;45943;53.148;8.204;2022-08-21T00:15:46;101618.06;;;29.66;42.23
49216;BME280;45943;53.148;8.204;2022-08-21T00:18:13;101618.81;;;29.55;42.65
49216;BME280;45943;53.148;8.204;2022-08-21T00:20:39;101619.72;;;29.49;42.79
49216;BME280;45943;53.148;8.204;2022-08-21T00:23:07;101619.72;;;29.49;42.94
49216;BME280;45943;53.148;8.204;2022-08-21T00:25:33;101616.78;;;29.44;42.97
49216;BME280;45943;53.148;8.204;2022-08-21T00:27:59;101609.50;;;29.68;42.19
49216;BME280;45943;53.148;8.204;2022-08-21T00:30:27;101611.75;;;29.59;42.44
49216;BME280;45943;53.148;8.204;2022-08-21T00:32:54;101615.28;;;29.66;42.29
49216;BME280;45943;53.148;8.204;2022-08-21T00:35:25;101608.03;;;29.47;42.56
49216;BME280;45943;53.148;8.204;2022-08-21T00:37:53;101609.34;;;29.45;43.17
49216;BME280;45943;53.148;8.204;2022-08-21T00:40:22;101607.63;;;29.50;42.98
49216;BME280;45943;53.148;8.204;2022-08-21T00:42:51;101607.19;;;29.47;43.21
49216;BME280;45943;53.148;8.204;2022-08-21T00:45:17;101612.34;;;29.43;43.23
49216;BME280;45943;53.148;8.204;2022-08-21T00:47:43;101601.91;;;29.45;43.12
49216;BME280;45943;53.148;8.204;2022-08-21T00:50:10;101597.66;;;29.24;43.49
49216;BME280;45943;53.148;8.204;2022-08-21T00:52:37;101600.72;;;29.16;43.62
49216;BME280;45943;53.148;8.204;2022-08-21T00:55:05;101605.06;;;29.05;43.74
49216;BME280;45943;53.148;8.204;2022-08-21T00:57:42;101602.09;;;29.07;43.79
49216;BME280;45943;53.148;8.204;2022-08-21T01:00:15;101606.16;;;29.04;43.87
49216;BME280;45943;53.148;8.204;2022-08-21T01:02:44;101606.38;;;29.03;44.04
49216;BME280;45943;53.148;8.204;2022-08-21T01:05:10;101602.22;;;28.94;44.18
49216;BME280;45943;53.148;8.204;2022-08-21T01:07:37;101599.09;;;28.83;44.22
49216;BME280;45943;53.148;8.204;2022-08-21T01:10:05;101608.03;;;28.79;44.41
49216;BME280;45943;53.148;8.204;2022-08-21T01:12:32;101599.88;;;28.66;44.65
49216;BME280;45943;53.148;8.204;2022-08-21T01:15:00;101601.41;;;28.62;44.83
49216;BME280;45943;53.148;8.204;2022-08-21T01:17:28;101598.47;;;28.56;44.91
49216;BME280;45943;53.148;8.204;2022-08-21T01:19:57;101608.59;;;28.31;45.42
49216;BME280;45943;53.148;8.204;2022-08-21T01:22:24;101605.25;;;28.22;45.49
49216;BME280;45943;53.148;8.204;2022-08-21T01:24:50;101600.97;;;27.95;46.33
49216;BME280;45943;53.148;8.204;2022-08-21T01:27:16;101606.97;;;27.79;46.83
49216;BME280;45943;53.148;8.204;2022-08-21T01:29:45;101601.44;;;27.79;46.46
49216;BME280;45943;53.148;8.204;2022-08-21T01:32:17;101602.50;;;27.78;46.49
49216;BME280;45943;53.148;8.204;2022-08-21T01:34:45;101612.22;;;27.87;46.39
49216;BME280;45943;53.148;8.204;2022-08-21T01:37:13;101605.19;;;27.91;46.29
49216;BME280;45943;53.148;8.204;2022-08-21T01:39:39;101609.66;;;27.92;46.23
49216;BME280;45943;53.148;8.204;2022-08-21T01:42:07;101603.03;;;27.99;46.00
49216;BME280;45943;53.148;8.204;2022-08-21T01:44:34;101606.47;;;27.95;46.01
49216;BME280;45943;53.148;8.204;2022-08-21T01:47:01;101605.47;;;27.83;46.49
49216;BME280;45943;53.148;8.204;2022-08-21T01:49:29;101607.19;;;27.77;46.47
49216;BME280;45943;53.148;8.204;2022-08-21T01:51:55;101600.84;;;27.63;46.78
49216;BME280;45943;53.148;8.204;2022-08-21T01:54:21;101604.25;;;27.59;46.77
49216;BME280;45943;53.148;8.204;2022-08-21T01:56:48;101599.78;;;27.64;47.07
49216;BME280;45943;53.148;8.204;2022-08-21T01:59:16;101609.59;;;27.40;47.66
49216;BME280;45943;53.148;8.204;2022-08-21T02:01:43;101602.16;;;27.54;47.57
49216;BME280;45943;53.148;8.204;2022-08-21T02:04:09;101608.53;;;27.48;47.51
49216;BME280;45943;53.148;8.204;2022-08-21T02:06:36;101608.63;;;28.24;46.30
49216;BME280;45943;53.148;8.204;2022-08-21T02:09:03;101595.25;;;28.28;45.91
49216;BME280;45943;53.148;8.204;2022-08-21T02:11:31;101599.72;;;28.29;45.80
49216;BME280;45943;53.148;8.204;2022-08-21T02:13:57;101596.22;;;28.40;45.37
49216;BME280;45943;53.148;8.204;2022-08-21T02:16:23;101588.59;;;28.42;45.41
49216;BME280;45943;53.148;8.204;2022-08-21T02:18:50;101591.75;;;28.46;45.36
49216;BME280;45943;53.148;8.204;2022-08-21T02:21:16;101583.09;;;28.42;45.46
49216;BME280;45943;53.148;8.204;2022-08-21T02:23:42;101588.53;;;28.49;45.17
49216;BME280;45943;53.148;8.204;2022-08-21T02:26:09;101580.72;;;28.46;45.34
49216;BME280;45943;53.148;8.204;2022-08-21T02:28:35;101583.13;;;28.36;45.11
49216;BME280;45943;53.148;8.204;2022-08-21T02:31:02;101582.78;;;28.19;45.59
49216;BME280;45943;53.148;8.204;2022-08-21T02:33:28;101581.47;;;28.28;45.26
49216;BME280;45943;53.148;8.204;2022-08-21T02:35:55;101572.13;;;28.29;45.20
49216;BME280;45943;53.148;8.204;2022-08-21T02:38:23;101582.31;;;28.28;45.18
49216;BME280;45943;53.148;8.204;2022-08-21T02:40:52;101577.41;;;28.31;44.97
49216;BME280;45943;53.148;8.204;2022-08-21T02:43:20;101575.94;;;28.28;44.99
49216;BME280;45943;53.148;8.204;2022-08-21T02:45:48;101570.63;;;28.33;44.91
49216;BME280;45943;53.148;8.204;2022-08-21T02:48:15;101566.63;;;28.22;44.98
49216;BME280;45943;53.148;8.204;2022-08-21T02:50:45;101564.03;;;28.27;44.70
49216;BME280;45943;53.148;8.204;2022-08-21T02:53:14;101564.81;;;28.41;44.59
49216;BME280;45943;53.148;8.204;2022-08-21T02:55:42;101565.22;;;28.45;44.57
49216;BME280;45943;53.148;8.204;2022-08-21T02:58:10;101556.72;;;28.46;44.57
49216;BME280;45943;53.148;8.204;2022-08-21T03:00:36;101557.75;;;28.52;44.41
49216;BME280;45943;53.148;8.204;2022-08-21T03:03:03;101567.13;;;27.61;46.20
49216;BME280;45943;53.148;8.204;2022-08-21T03:05:31;101581.41;;;26.19;50.04
49216;BME280;45943;53.148;8.204;2022-08-21T03:07:59;101578.50;;;27.20;47.19
49216;BME280;45943;53.148;8.204;2022-08-21T03:10:26;101565.78;;;26.99;48.82
49216;BME280;45943;53.148;8.204;2022-08-21T03:12:53;101566.41;;;27.28;48.13
49216;BME280;45943;53.148;8.204;2022-08-21T03:15:20;101564.44;;;27.48;47.37
49216;BME280;45943;53.148;8.204;2022-08-21T03:17:49;101573.06;;;27.65;46.66
49216;BME280;45943;53.148;8.204;2022-08-21T03:20:16;101566.78;;;27.44;47.01
49216;BME280;45943;53.148;8.204;2022-08-21T03:22:44;101575.63;;;27.60;46.97
49216;BME280;45943;53.148;8.204;2022-08-21T03:25:10;101565.91;;;27.51;47.04
49216;BME280;45943;53.148;8.204;2022-08-21T03:27:36;101568.22;;;27.67;46.62
49216;BME280;45943;53.148;8.204;2022-08-21T03:30:05;101563.53;;;27.74;46.56
49216;BME280;45943;53.148;8.204;2022-08-21T03:32:32;101558.78;;;27.81;46.22
49216;BME280;45943;53.148;8.204;2022-08-21T03:34:58;101558.84;;;27.75;46.34
49216;BME280;45943;53.148;8.204;2022-08-21T03:37:25;101546.50;;;27.84;45.95
49216;BME280;45943;53.148;8.204;2022-08-21T03:39:51;101550.38;;;27.63;46.43
49216;BME280;45943;53.148;8.204;2022-08-21T03:42:18;101544.00;;;27.62;46.50
49216;BME280;45943;53.148;8.204;2022-08-21T03:44:44;101555.47;;;27.59;46.72
49216;BME280;45943;53.148;8.204;2022-08-21T03:47:10;101555.88;;;27.63;46.50
49216;BME280;45943;53.148;8.204;2022-08-21T03:49:36;101551.66;;;27.60;46.57
49216;BME280;45943;53.148;8.204;2022-08-21T03:52:03;101553.56;;;27.60;46.75
49216;BME280;45943;53.148;8.204;2022-08-21T03:54:30;101555.88;;;27.63;46.56
49216;BME280;45943;53.148;8.204;2022-08-21T03:56:56;101552.06;;;27.70;46.36
49216;BME280;45943;53.148;8.204;2022-08-21T03:59:22;101549.28;;;27.77;46.25
49216;BME280;45943;53.148;8.204;2022-08-21T04:01:57;101551.78;;;27.34;47.21
49216;BME280;45943;53.148;8.204;2022-08-21T04:04:26;101550.50;;;27.30;47.35
49216;BME280;45943;53.148;8.204;2022-08-21T04:06:54;101556.47;;;26.94;48.56
49216;BME280;45943;53.148;8.204;2022-08-21T04:09:20;101550.56;;;27.17;47.94
49216;BME280;45943;53.148;8.204;2022-08-21T04:11:46;101557.78;;;27.04;48.25
49216;BME280;45943;53.148;8.204;2022-08-21T04:14:13;101559.44;;;26.92;48.67
49216;BME280;45943;53.148;8.204;2022-08-21T04:16:40;101557.16;;;26.56;49.57
49216;BME280;45943;53.148;8.204;2022-08-21T04:19:07;101559.44;;;26.92;48.73
49216;BME280;45943;53.148;8.204;2022-08-21T04:21:33;101562.81;;;27.01;48.44
49216;BME280;45943;53.148;8.204;2022-08-21T04:24:00;101559.03;;;26.88;48.70
49216;BME280;45943;53.148;8.204;2022-08-21T04:26:26;101563.06;;;26.79;49.20
49216;BME280;45943;53.148;8.204;2022-08-21T04:28:53;101573.59;;;26.29;50.24
49216;BME280;45943;53.148;8.204;2022-08-21T04:31:19;101567.88;;;26.18;51.20
49216;BME280;45943;53.148;8.204;2022-08-21T04:33:45;101565.75;;;26.07;51.62
49216;BME280;45943;53.148;8.204;2022-08-21T04:36:11;101569.53;;;25.99;52.00
49216;BME280;45943;53.148;8.204;2022-08-21T04:38:37;101575.44;;;26.02;52.10
49216;BME280;45943;53.148;8.204;2022-08-21T04:41:03;101578.41;;;26.01;52.65
49216;BME280;45943;53.148;8.204;2022-08-21T04:43:31;101571.03;;;25.60;53.97
49216;BME280;45943;53.148;8.204;2022-08-21T04:45:57;101576.09;;;25.98;53.08
49216;BME280;45943;53.148;8.204;2022-08-21T04:48:23;101574.31;;;25.77;53.53
49216;BME280;45943;53.148;8.204;2022-08-21T04:53:41;101579.28;;;26.21;52.47
49216;BME280;45943;53.148;8.204;2022-08-21T04:56:13;101577.66;;;26.93;50.35
49216;BME280;45943;53.148;8.204;2022-08-21T04:58:44;101581.91;;;27.09;49.53
49216;BME280;45943;53.148;8.204;2022-08-21T05:01:11;101590.59;;;26.66;51.08
49216;BME280;45943;53.148;8.204;2022-08-21T05:03:40;101590.78;;;26.45;51.71
49216;BME280;45943;53.148;8.204;2022-08-21T05:06:08;101592.28;;;26.87;50.71
49216;BME280;45943;53.148;8.204;2022-08-21T05:08:37;101589.31;;;27.02;49.88
49216;BME280;45943;53.148;8.204;2022-08-21T05:11:05;101590.56;;;26.93;50.35
49216;BME280;45943;53.148;8.204;2022-08-21T05:13:32;101594.41;;;26.85;50.81
49216;BME280;45943;53.148;8.204;2022-08-21T05:15:58;101590.59;;;26.99;50.49
49216;BME280;45943;53.148;8.204;2022-08-21T05:18:24;101594.00;;;26.95;50.54
49216;BME280;45943;53.148;8.204;2022-08-21T05:20:50;101596.31;;;26.78;50.59
49216;BME280;45943;53.148;8.204;2022-08-21T05:23:16;101592.41;;;26.19;53.28
49216;BME280;45943;53.148;8.204;2022-08-21T05:25:42;101594.09;;;26.14;53.86
49216;BME280;45943;53.148;8.204;2022-08-21T05:28:09;101599.56;;;23.90;65.83
49216;BME280;45943;53.148;8.204;2022-08-21T05:30:35;101585.03;;;23.74;75.16
49216;BME280;45943;53.148;8.204;2022-08-21T05:33:03;101594.91;;;25.19;60.29
49216;BME280;45943;53.148;8.204;2022-08-21T05:35:31;101590.94;;;26.17;60.24
49216;BME280;45943;53.148;8.204;2022-08-21T05:37:58;101583.16;;;27.00;54.98
49216;BME280;45943;53.148;8.204;2022-08-21T05:40:25;101593.56;;;26.84;55.02
49216;BME280;45943;53.148;8.204;2022-08-21T05:42:52;101585.47;;;25.00;61.92
49216;BME280;45943;53.148;8.204;2022-08-21T05:45:24;101584.94;;;25.93;60.23
49216;BME280;45943;53.148;8.204;2022-08-21T05:47:53;101591.38;;;24.75;64.85
49216;BME280;45943;53.148;8.204;2022-08-21T05:50:20;101579.13;;;25.68;62.45
49216;BME280;45943;53.148;8.204;2022-08-21T05:52:46;101584.00;;;25.73;61.29
49216;BME280;45943;53.148;8.204;2022-08-21T05:55:12;101574.97;;;25.44;63.57
49216;BME280;45943;53.148;8.204;2022-08-21T05:57:38;101581.69;;;26.44;58.66
49216;BME280;45943;53.148;8.204;2022-08-21T06:00:07;101574.59;;;27.48;53.88
49216;BME280;45943;53.148;8.204;2022-08-21T06:02:38;101569.44;;;27.71;51.76
49216;BME280;45943;53.148;8.204;2022-08-21T06:05:05;101570.31;;;27.65;52.18
49216;BME280;45943;53.148;8.204;2022-08-21T06:07:32;101572.09;;;27.91;51.43
49216;BME280;45943;53.148;8.204;2022-08-21T06:09:58;101569.81;;;27.88;51.90
49216;BME280;45943;53.148;8.204;2022-08-21T06:12:25;101572.53;;;27.94;51.01
49216;BME280;45943;53.148;8.204;2022-08-21T06:14:51;101569.72;;;27.56;51.66
49216;BME280;45943;53.148;8.204;2022-08-21T06:17:17;101572.28;;;28.03;51.22
49216;BME280;45943;53.148;8.204;2022-08-21T06:19:44;101577.25;;;28.50;49.86
49216;BME280;45943;53.148;8.204;2022-08-21T06:22:10;101573.91;;;28.73;49.24
49216;BME280;45943;53.148;8.204;2022-08-21T06:24:36;101572.78;;;28.81;49.33
49216;BME280;45943;53.148;8.204;2022-08-21T06:27:05;101574.00;;;28.85;49.24
49216;BME280;45943;53.148;8.204;2022-08-21T06:29:33;101577.19;;;28.89;48.74
49216;BME280;45943;53.148;8.204;2022-08-21T06:32:00;101577.16;;;29.13;48.43
49216;BME280;45943;53.148;8.204;2022-08-21T06:34:27;101581.47;;;29.28;48.44
49216;BME280;45943;53.148;8.204;2022-08-21T06:36:53;101587.91;;;29.22;48.38
49216;BME280;45943;53.148;8.204;2022-08-21T06:39:19;101576.94;;;29.15;48.81
49216;BME280;45943;53.148;8.204;2022-08-21T06:41:45;101584.28;;;29.03;49.10
49216;BME280;45943;53.148;8.204;2022-08-21T06:44:11;101578.38;;;29.18;49.12
49216;BME280;45943;53.148;8.204;2022-08-21T06:46:37;101577.00;;;29.27;48.84
49216;BME280;45943;53.148;8.204;2022-08-21T06:49:03;101580.41;;;29.10;49.00
49216;BME280;45943;53.148;8.204;2022-08-21T06:51:29;101578.88;;;29.33;48.58
49216;BME280;45943;53.148;8.204;2022-08-21T06:53:55;101584.84;;;27.21;56.51
49216;BME280;45943;53.148;8.204;2022-08-21T06:56:21;101586.41;;;25.89;64.66
49216;BME280;45943;53.148;8.204;2022-08-21T06:58:47;101575.28;;;26.30;65.62
49216;BME280;45943;53.148;8.204;2022-08-21T07:01:13;101567.03;;;27.23;61.64
49216;BME280;45943;53.148;8.204;2022-08-21T07:03:40;101566.75;;;27.51;58.63
49216;BME280;45943;53.148;8.204;2022-08-21T07:06:08;101572.66;;;28.06;58.63
49216;BME280;45943;53.148;8.204;2022-08-21T07:08:36;101567.28;;;27.86;55.33
49216;BME280;45943;53.148;8.204;2022-08-21T07:11:03;101574.22;;;28.27;59.05
49216;BME280;45943;53.148;8.204;2022-08-21T07:13:34;101568.88;;;30.17;49.15
49216;BME280;45943;53.148;8.204;2022-08-21T07:16:01;101576.22;;;26.57;63.13
49216;BME280;45943;53.148;8.204;2022-08-21T07:18:27;101583.13;;;26.27;64.76
49216;BME280;45943;53.148;8.204;2022-08-21T07:20:53;101571.84;;;25.48;75.12
49216;BME280;45943;53.148;8.204;2022-08-21T07:23:22;101582.13;;;26.61;65.46
49216;BME280;45943;53.148;8.204;2022-08-21T07:25:52;101575.34;;;28.51;56.69
49216;BME280;45943;53.148;8.204;2022-08-21T07:28:18;101576.41;;;26.76;65.80
49216;BME280;45943;53.148;8.204;2022-08-21T07:30:44;101580.34;;;26.07;68.23
49216;BME280;45943;53.148;8.204;2022-08-21T07:33:10;101559.44;;;29.03;54.11
49216;BME280;45943;53.148;8.204;2022-08-21T07:35:36;101563.34;;;29.68;51.49
49216;BME280;45943;53.148;8.204;2022-08-21T07:38:02;101575.94;;;30.54;48.09
49216;BME280;45943;53.148;8.204;2022-08-21T07:40:28;101573.31;;;27.57;55.21
49216;BME280;45943;53.148;8.204;2022-08-21T07:42:54;101574.97;;;28.09;54.57
49216;BME280;45943;53.148;8.204;2022-08-21T07:45:21;101582.00;;;29.91;47.13
49216;BME280;45943;53.148;8.204;2022-08-21T07:47:49;101585.63;;;28.69;50.40
49216;BME280;45943;53.148;8.204;2022-08-21T07:50:16;101583.59;;;27.81;53.86
49216;BME280;45943;53.148;8.204;2022-08-21T07:52:42;101582.41;;;28.09;53.49
49216;BME280;45943;53.148;8.204;2022-08-21T07:55:09;101579.22;;;25.95;62.81
49216;BME280;45943;53.148;8.204;2022-08-21T07:57:37;101567.78;;;27.57;58.78
49216;BME280;45943;53.148;8.204;2022-08-21T08:00:04;101571.66;;;27.42;58.80
49216;BME280;45943;53.148;8.204;2022-08-21T08:02:32;101580.13;;;26.15;67.46
49216;BME280;45943;53.148;8.204;2022-08-21T08:04:59;101586.91;;;26.06;68.47
49216;BME280;45943;53.148;8.204;2022-08-21T08:07:26;101565.72;;;29.28;53.62
49216;BME280;45943;53.148;8.204;2022-08-21T08:09:52;101571.63;;;27.56;60.67
49216;BME280;45943;53.148;8.204;2022-08-21T08:12:18;101571.25;;;29.83;51.84
49216;BME280;45943;53.148;8.204;2022-08-21T08:14:45;101572.28;;;30.72;48.79
49216;BME280;45943;53.148;8.204;2022-08-21T08:17:11;101576.09;;;30.60;46.67
49216;BME280;45943;53.148;8.204;2022-08-21T08:19:39;101578.66;;;27.45;57.48
49216;BME280;45943;53.148;8.204;2022-08-21T08:22:15;101579.47;;;27.65;60.75
49216;BME280;45943;53.148;8.204;2022-08-21T08:24:47;101568.56;;;30.37;50.16
49216;BME280;45943;53.148;8.204;2022-08-21T08:27:14;101567.47;;;29.04;51.08
49216;BME280;45943;53.148;8.204;2022-08-21T08:29:42;101568.31;;;30.26;49.03
49216;BME280;45943;53.148;8.204;2022-08-21T08:32:08;101586.31;;;28.89;50.46
49216;BME280;45943;53.148;8.204;2022-08-21T08:34:34;101571.25;;;29.47;49.07
49216;BME280;45943;53.148;8.204;2022-08-21T08:37:02;101572.34;;;29.46;50.45
49216;BME280;45943;53.148;8.204;2022-08-21T08:39:28;101572.47;;;29.14;50.77
49216;BME280;45943;53.148;8.204;2022-08-21T08:44:42;101576.84;;;26.59;58.93
49216;BME280;45943;53.148;8.204;2022-08-21T08:47:10;101575.53;;;27.02;59.93
49216;BME280;45943;53.148;8.204;2022-08-21T08:52:22;101570.88;;;28.18;54.12
49216;BME280;45943;53.148;8.204;2022-08-21T08:54:57;101567.84;;;29.08;53.11
49216;BME280;45943;53.148;8.204;2022-08-21T08:57:30;101582.66;;;29.57;49.75
49216;BME280;45943;53.148;8.204;2022-08-21T08:59:58;101562.59;;;31.97;44.08
49216;BME280;45943;53.148;8.204;2022-08-21T09:02:26;101557.31;;;32.74;41.39
49216;BME280;45943;53.148;8.204;2022-08-21T09:04:55;101571.69;;;31.05;43.62
49216;BME280;45943;53.148;8.204;2022-08-21T09:07:28;101562.59;;;32.42;41.63
49216;BME280;45943;53.148;8.204;2022-08-21T09:10:12;101570.00;;;31.04;44.58
49216;BME280;45943;53.148;8.204;2022-08-21T09:21:28;101573.72;;;28.68;47.93
49216;BME280;45943;53.148;8.204;2022-08-21T09:27:14;101568.25;;;29.11;45.84
49216;BME280;45943;53.148;8.204;2022-08-21T09:29:43;101552.66;;;29.17;46.93
49216;BME280;45943;53.148;8.204;2022-08-21T09:32:34;101553.38;;;29.12;46.06
49216;BME280;45943;53.148;8.204;2022-08-21T09:35:03;101547.22;;;28.04;47.46
49216;BME280;45943;53.148;8.204;2022-08-21T09:38:22;101551.06;;;29.64;44.69
49216;BME280;45943;53.148;8.204;2022-08-21T09:45:46;101559.22;;;30.08;42.02
49216;BME280;45943;53.148;8.204;2022-08-21T09:48:24;101550.50;;;31.63;39.70
49216;BME280;45943;53.148;8.204;2022-08-21T09:50:51;101567.94;;;30.65;41.54
49216;BME280;45943;53.148;8.204;2022-08-21T09:53:24;101558.09;;;30.80;41.12
49216;BME280;45943;53.148;8.204;2022-08-21T09:55:57;101554.06;;;30.11;40.21
49216;BME280;45943;53.148;8.204;2022-08-21T09:58:47;101555.22;;;29.74;40.92
49216;BME280;45943;53.148;8.204;2022-08-21T10:01:17;101552.59;;;30.09;41.80
49216;BME280;45943;53.148;8.204;2022-08-21T10:03:45;101552.78;;;30.79;39.75
49216;BME280;45943;53.148;8.204;2022-08-21T10:06:26;101558.34;;;30.37;40.06
49216;BME280;45943;53.148;8.204;2022-08-21T10:11:57;101553.25;;;30.99;39.52
49216;BME280;45943;53.148;8.204;2022-08-21T10:15:08;101544.44;;;30.67;40.62
49216;BME280;45943;53.148;8.204;2022-08-21T10:17:50;101546.84;;;29.80;40.76
49216;BME280;45943;53.148;8.204;2022-08-21T10:20:25;101546.16;;;30.80;40.31
49216;BME280;45943;53.148;8.204;2022-08-21T10:25:52;101538.56;;;30.99;40.24
49216;BME280;45943;53.148;8.204;2022-08-21T10:28:27;101543.47;;;29.05;43.01
49216;BME280;45943;53.148;8.204;2022-08-21T10:42:25;101532.47;;;30.43;39.47
49216;BME280;45943;53.148;8.204;2022-08-21T10:45:09;101538.69;;;30.15;40.94
49216;BME280;45943;53.148;8.204;2022-08-21T10:50:15;101520.16;;;33.36;35.97
49216;BME280;45943;53.148;8.204;2022-08-21T11:01:32;101532.72;;;34.73;34.60
49216;BME280;45943;53.148;8.204;2022-08-21T11:04:12;101536.41;;;34.47;33.67
49216;BME280;45943;53.148;8.204;2022-08-21T11:06:49;101532.91;;;32.43;35.86
49216;BME280;45943;53.148;8.204;2022-08-21T11:09:24;101533.34;;;33.24;35.55
49216;BME280;45943;53.148;8.204;2022-08-21T11:12:15;101538.66;;;34.50;33.37
49216;BME280;45943;53.148;8.204;2022-08-21T11:17:31;101522.44;;;35.21;32.15
49216;BME280;45943;53.148;8.204;2022-08-21T11:20:04;101537.53;;;32.88;35.36
49216;BME280;45943;53.148;8.204;2022-08-21T11:22:53;101527.41;;;32.81;35.97
49216;BME280;45943;53.148;8.204;2022-08-21T11:25:30;101532.41;;;34.06;33.83
49216;BME280;45943;53.148;8.204;2022-08-21T11:28:15;101530.38;;;33.74;33.67
49216;BME280;45943;53.148;8.204;2022-08-21T11:30:58;101528.47;;;34.34;34.02
49216;BME280;45943;53.148;8.204;2022-08-21T11:33:43;101526.22;;;35.57;32.68
49216;BME280;45943;53.148;8.204;2022-08-21T11:36:32;101535.34;;;33.50;34.05
49216;BME280;45943;53.148;8.204;2022-08-21T11:42:19;101532.63;;;33.77;34.34
49216;BME280;45943;53.148;8.204;2022-08-21T11:50:39;101530.59;;;32.73;35.11
49216;BME280;45943;53.148;8.204;2022-08-21T11:53:12;101529.44;;;33.90;33.25
49216;BME280;45943;53.148;8.204;2022-08-21T11:55:48;101537.41;;;33.60;34.23
49216;BME280;45943;53.148;8.204;2022-08-21T11:58:23;101519.94;;;35.92;31.35
49216;BME280;45943;53.148;8.204;2022-08-21T12:01:40;101533.47;;;37.52;29.46
49216;BME280;45943;53.148;8.204;2022-08-21T12:06:28;101532.53;;;38.55;28.33
49216;BME280;45943;53.148;8.204;2022-08-21T12:09:04;101530.81;;;35.26;30.35
49216;BME280;45943;53.148;8.204;2022-08-21T12:11:32;101533.91;;;37.74;27.65
49216;BME280;45943;53.148;8.204;2022-08-21T12:14:15;101533.47;;;39.27;26.29
49216;BME280;45943;53.148;8.204;2022-08-21T12:16:44;101527.78;;;37.77;26.81
49216;BME280;45943;53.148;8.204;2022-08-21T12:24:45;101520.44;;;37.86;27.63
49216;BME280;45943;53.148;8.204;2022-08-21T12:27:28;101520.22;;;35.91;29.73
49216;BME280;45943;53.148;8.204;2022-08-21T12:30:18;101522.50;;;37.60;27.97
49216;BME280;45943;53.148;8.204;2022-08-21T12:33:00;101520.66;;;38.63;26.32
49216;BME280;45943;53.148;8.204;2022-08-21T12:35:38;101518.41;;;38.36;26.03
49216;BME280;45943;53.148;8.204;2022-08-21T12:38:12;101520.91;;;37.94;26.38
49216;BME280;45943;53.148;8.204;2022-08-21T12:40:46;101520.34;;;38.70;25.83
49216;BME280;45943;53.148;8.204;2022-08-21T12:43:13;101520.75;;;35.88;28.41
49216;BME280;45943;53.148;8.204;2022-08-21T12:45:44;101526.00;;;37.32;27.23
49216;BME280;45943;53.148;8.204;2022-08-21T12:48:26;101517.66;;;37.07;26.73
49216;BME280;45943;53.148;8.204;2022-08-21T12:51:07;101512.41;;;39.73;25.55
49216;BME280;45943;53.148;8.204;2022-08-21T12:53:53;101499.16;;;40.76;24.93
49216;BME280;45943;53.148;8.204;2022-08-21T12:56:25;101513.34;;;38.96;25.16
49216;BME280;45943;53.148;8.204;2022-08-21T12:59:03;101499.28;;;39.44;24.32
49216;BME280;45943;53.148;8.204;2022-08-21T13:01:33;101502.50;;;37.87;25.63
49216;BME280;45943;53.148;8.204;2022-08-21T13:04:09;101508.41;;;38.20;26.22
49216;BME280;45943;53.148;8.204;2022-08-21T13:06:39;101507.00;;;38.23;26.14
49216;BME280;45943;53.148;8.204;2022-08-21T13:09:10;101501.56;;;36.42;27.65
49216;BME280;45943;53.148;8.204;2022-08-21T13:11:40;101492.72;;;38.82;26.52
49216;BME280;45943;53.148;8.204;2022-08-21T13:14:13;101494.38;;;42.18;23.73
49216;BME280;45943;53.148;8.204;2022-08-21T13:16:52;101497.22;;;45.22;21.00
49216;BME280;45943;53.148;8.204;2022-08-21T13:19:20;101495.34;;;40.21;22.75
49216;BME280;45943;53.148;8.204;2022-08-21T13:21:46;101491.38;;;42.14;22.42
49216;BME280;45943;53.148;8.204;2022-08-21T13:26:44;101495.78;;;42.82;22.63
49216;BME280;45943;53.148;8.204;2022-08-21T13:29:12;101489.22;;;40.00;23.66
49216;BME280;45943;53.148;8.204;2022-08-21T13:31:41;101485.47;;;40.23;23.86
49216;BME280;45943;53.148;8.204;2022-08-21T13:34:13;101493.72;;;40.80;23.60
49216;BME280;45943;53.148;8.204;2022-08-21T13:36:41;101493.81;;;37.24;25.91
49216;BME280;45943;53.148;8.204;2022-08-21T13:39:11;101494.63;;;39.16;25.83
49216;BME280;45943;53.148;8.204;2022-08-21T13:41:40;101486.59;;;38.12;25.53
49216;BME280;45943;53.148;8.204;2022-08-21T13:44:20;101485.13;;;41.04;23.22
49216;BME280;45943;53.148;8.204;2022-08-21T13:46:48;101482.31;;;42.03;22.11
49216;BME280;45943;53.148;8.204;2022-08-21T13:49:16;101492.84;;;40.98;22.79
49216;BME280;45943;53.148;8.204;2022-08-21T13:51:44;101499.03;;;38.93;23.70
49216;BME280;45943;53.148;8.204;2022-08-21T13:54:27;101491.59;;;37.21;25.46
49216;BME280;45943;53.148;8.204;2022-08-21T13:56:59;101492.38;;;38.60;24.19
49216;BME280;45943;53.148;8.204;2022-08-21T13:59:35;101497.69;;;38.90;23.05
49216;BME280;45943;53.148;8.204;2022-08-21T14:02:08;101488.25;;;40.42;23.30
49216;BME280;45943;53.148;8.204;2022-08-21T14:05:00;101487.03;;;41.58;22.84
49216;BME280;45943;53.148;8.204;2022-08-21T14:07:28;101503.00;;;42.97;20.47
49216;BME280;45943;53.148;8.204;2022-08-21T14:10:16;101498.25;;;42.22;21.02
49216;BME280;45943;53.148;8.204;2022-08-21T14:12:52;101500.84;;;38.21;24.04
49216;BME280;45943;53.148;8.204;2022-08-21T14:15:25;101490.84;;;38.09;25.34
49216;BME280;45943;53.148;8.204;2022-08-21T14:17:54;101498.28;;;37.25;25.59
49216;BME280;45943;53.148;8.204;2022-08-21T14:20:34;101496.44;;;40.85;22.53